createdAt,value
2023-04-07T00:04:22.249Z,8.22
2023-04-07T00:09:25.703Z,8.29
2023-04-07T00:14:28.734Z,8.31
2023-04-07T00:19:34.419Z,8.31
2023-04-07T00:24:37.883Z,8.28
2023-04-07T00:29:41.200Z,8.29
2023-04-07T00:34:46.074Z,8.26
2023-04-07T00:39:55.819Z,8.21
2023-04-07T00:44:58.915Z,8.30
2023-04-07T00:50:05.080Z,8.26
2023-04-07T00:55:09.146Z,8.28
2023-04-07T01:00:16.376Z,8.30
2023-04-07T01:05:26.642Z,8.28
2023-04-07T01:10:39.118Z,8.27
2023-04-07T01:15:56.378Z,8.29
2023-04-07T01:21:08.855Z,8.28
2023-04-07T01:26:25.606Z,8.31
2023-04-07T01:31:30.614Z,8.26
2023-04-07T01:36:34.883Z,8.33
2023-04-07T01:41:39.789Z,8.33
2023-04-07T01:46:44.467Z,8.31
2023-04-07T01:51:50.710Z,8.29
2023-04-07T01:56:53.764Z,8.27
2023-04-07T02:01:59.268Z,8.17
2023-04-07T02:07:07.589Z,8.20
2023-04-07T02:12:18.239Z,8.13
2023-04-07T02:17:36.227Z,8.08
2023-04-07T02:22:40.396Z,8.00
2023-04-07T02:27:43.772Z,8.02
2023-04-07T02:32:48.992Z,7.95
2023-04-07T02:37:52.323Z,7.99
2023-04-07T02:42:55.510Z,7.96
2023-04-07T02:48:00.559Z,8.01
2023-04-07T02:53:03.670Z,7.95
2023-04-07T02:58:06.887Z,7.99
2023-04-07T03:03:17.371Z,7.91
2023-04-07T03:08:32.545Z,7.88
2023-04-07T03:13:35.930Z,7.86
2023-04-07T03:18:41.635Z,7.83
2023-04-07T03:23:45.776Z,7.75
2023-04-07T03:28:48.929Z,7.70
2023-04-07T03:33:55.541Z,7.62
2023-04-07T03:38:59.984Z,7.40
2023-04-07T03:44:03.893Z,7.26
2023-04-07T03:49:12.738Z,7.23
2023-04-07T03:54:16.205Z,7.34
2023-04-07T03:59:21.845Z,7.52
2023-04-07T04:04:35.058Z,7.57
2023-04-07T04:09:38.295Z,7.66
2023-04-07T04:14:41.782Z,7.69
2023-04-07T04:19:48.676Z,7.75
2023-04-07T04:25:03.616Z,7.78
2023-04-07T04:30:09.502Z,7.76
2023-04-07T04:35:23.152Z,7.78
2023-04-07T04:40:39.529Z,7.76
2023-04-07T04:45:43.860Z,7.74
2023-04-07T04:50:51.505Z,7.67
2023-04-07T04:55:54.803Z,7.73
2023-04-07T05:01:02.256Z,7.73
2023-04-07T05:06:18.450Z,7.74
2023-04-07T05:11:24.418Z,7.72
2023-04-07T05:16:29.794Z,7.76
2023-04-07T05:21:34.517Z,7.87
2023-04-07T05:26:40.049Z,7.98
2023-04-07T05:31:43.276Z,8.01
2023-04-07T05:36:51.940Z,8.13
2023-04-07T05:41:56.645Z,8.21
2023-04-07T05:47:02.432Z,8.34
2023-04-07T05:52:08.056Z,8.44
2023-04-07T05:57:17.139Z,8.59
2023-04-07T06:02:22.387Z,8.71
2023-04-07T06:07:27.801Z,9.03
2023-04-07T06:12:31.216Z,9.03
2023-04-07T06:17:34.966Z,9.30
2023-04-07T06:22:40.183Z,9.51
2023-04-07T06:27:44.032Z,9.49
2023-04-07T06:32:47.187Z,9.50
2023-04-07T06:37:51.641Z,9.34
2023-04-07T06:42:55.456Z,9.33
2023-04-07T06:48:04.842Z,9.34
2023-04-07T06:53:09.335Z,9.28
2023-04-07T06:58:12.496Z,9.28
2023-04-07T07:03:15.733Z,9.45
2023-04-07T07:08:20.198Z,9.64
2023-04-07T07:13:26.213Z,9.78
2023-04-07T07:18:31.878Z,9.79
2023-04-07T07:23:36.393Z,10.18
2023-04-07T07:28:39.393Z,10.27
2023-04-07T07:33:44.319Z,10.42
2023-04-07T07:38:53.668Z,10.31
2023-04-07T07:43:57.468Z,10.02
2023-04-07T07:49:00.787Z,10.07
2023-04-07T07:54:05.386Z,9.80
2023-04-07T07:59:08.612Z,9.83
2023-04-07T08:04:11.923Z,9.95
2023-04-07T08:09:16.567Z,10.25
2023-04-07T08:14:20.442Z,10.16
2023-04-07T08:19:24.155Z,10.08
2023-04-07T08:24:29.981Z,9.96
2023-04-07T08:29:33.249Z,10.11
2023-04-07T08:34:37.127Z,10.46
2023-04-07T08:39:41.813Z,10.85
2023-04-07T08:44:46.371Z,10.61
2023-04-07T08:49:54.186Z,10.87
2023-04-07T08:55:01.738Z,10.81
2023-04-07T09:00:06.445Z,10.82
2023-04-07T09:05:10.828Z,10.61
2023-04-07T09:10:15.701Z,10.43
2023-04-07T09:15:18.708Z,10.60
2023-04-07T09:20:21.974Z,10.57
2023-04-07T09:25:28.116Z,10.92
2023-04-07T09:30:32.668Z,11.14
2023-04-07T09:35:53.606Z,11.03
2023-04-07T09:41:07.778Z,10.92
2023-04-07T09:46:13.627Z,10.72
2023-04-07T09:51:18.605Z,10.68
2023-04-07T09:56:24.079Z,10.79
2023-04-07T10:01:27.250Z,10.79
2023-04-07T10:06:30.935Z,10.75
2023-04-07T10:11:35.396Z,10.61
2023-04-07T10:16:39.289Z,11.07
2023-04-07T10:21:43.971Z,11.05
2023-04-07T10:26:53.187Z,10.85
2023-04-07T10:32:01.033Z,10.92
2023-04-07T10:37:13.619Z,10.85
2023-04-07T10:42:47.375Z,11.09
2023-04-07T10:48:16.126Z,11.10
2023-04-07T10:53:19.715Z,10.69
2023-04-07T10:58:24.425Z,10.75
2023-04-07T11:03:30.559Z,10.68
2023-04-07T11:08:35.057Z,10.69
2023-04-07T11:13:45.088Z,10.61
2023-04-07T11:18:52.872Z,10.83
2023-04-07T11:23:56.177Z,10.84
2023-04-07T11:28:59.395Z,10.82
2023-04-07T11:34:05.703Z,11.10
2023-04-07T11:39:28.179Z,10.99
2023-04-07T11:44:33.589Z,11.01
2023-04-07T11:49:47.520Z,10.75
2023-04-07T11:54:51.314Z,10.65
2023-04-07T12:00:07.144Z,10.77
2023-04-07T12:05:11.706Z,10.75
2023-04-07T12:10:21.666Z,10.96
2023-04-07T12:15:24.754Z,11.11
2023-04-07T12:20:29.737Z,11.18
2023-04-07T12:25:32.986Z,11.29
2023-04-07T12:30:36.163Z,10.69
2023-04-07T12:35:40.722Z,10.82
2023-04-07T12:40:44.017Z,10.92
2023-04-07T12:45:47.492Z,11.13
2023-04-07T12:50:52.256Z,11.31
2023-04-07T12:55:56.326Z,11.16
2023-04-07T13:01:00.816Z,10.91
2023-04-07T13:06:06.096Z,10.62
2023-04-07T13:11:09.135Z,10.42
2023-04-07T13:16:12.367Z,10.50
2023-04-07T13:21:40.541Z,10.44
2023-04-07T13:26:40.141Z,10.66
2023-04-07T13:31:43.382Z,10.99
2023-04-07T13:36:47.748Z,11.12
2023-04-07T13:41:53.113Z,11.08
2023-04-07T13:46:57.612Z,11.10
2023-04-07T13:52:02.754Z,11.38
2023-04-07T13:57:06.049Z,11.26
2023-04-07T14:02:12.229Z,10.94
2023-04-07T14:07:18.617Z,10.85
2023-04-07T14:12:22.312Z,10.88
2023-04-07T14:17:25.957Z,10.99
2023-04-07T14:22:30.926Z,11.05
2023-04-07T14:27:34.100Z,10.99
2023-04-07T14:32:37.335Z,10.69
2023-04-07T14:37:41.890Z,10.66
2023-04-07T14:42:45.089Z,10.65
2023-04-07T14:47:50.266Z,10.96
2023-04-07T14:52:55.776Z,11.01
2023-04-07T14:57:58.929Z,11.04
2023-04-07T15:03:02.266Z,11.01
2023-04-07T15:08:06.845Z,10.67
2023-04-07T15:13:09.804Z,10.58
2023-04-07T15:18:12.933Z,10.70
2023-04-07T15:23:17.490Z,10.86
2023-04-07T15:28:20.630Z,10.84
2023-04-07T15:33:23.754Z,10.60
2023-04-07T15:38:29.206Z,10.41
2023-04-07T15:43:32.208Z,10.39
2023-04-07T15:48:35.385Z,10.36
2023-04-07T15:53:41.898Z,10.41
2023-04-07T15:58:45.447Z,10.42
2023-04-07T16:03:51.012Z,10.52
2023-04-07T16:08:56.270Z,10.48
2023-04-07T16:13:59.356Z,10.57
2023-04-07T16:19:02.436Z,10.51
2023-04-07T16:24:07.241Z,10.38
2023-04-07T16:29:10.393Z,10.40
2023-04-07T16:34:14.489Z,10.35
2023-04-07T16:39:19.245Z,10.15
2023-04-07T16:44:23.192Z,10.27
2023-04-07T16:49:26.845Z,10.20
2023-04-07T16:54:31.367Z,10.13
2023-04-07T16:59:34.748Z,9.92
2023-04-07T17:04:41.129Z,9.74
2023-04-07T17:09:46.350Z,9.77
2023-04-07T17:14:52.429Z,9.94
2023-04-07T17:19:57.266Z,9.91
2023-04-07T17:25:02.042Z,9.87
2023-04-07T17:30:06.924Z,9.82
2023-04-07T17:35:10.780Z,9.91
2023-04-07T17:40:15.509Z,9.89
2023-04-07T17:45:19.027Z,9.77
2023-04-07T17:50:22.552Z,9.69
2023-04-07T17:55:27.998Z,9.72
2023-04-07T18:00:32.013Z,9.74
2023-04-07T18:05:37.702Z,9.75
2023-04-07T18:10:42.464Z,9.66
2023-04-07T18:15:45.788Z,9.46
2023-04-07T18:20:48.890Z,9.40
2023-04-07T18:25:53.659Z,9.39
2023-04-07T18:31:04.249Z,9.32
2023-04-07T18:36:09.451Z,9.39
2023-04-07T18:41:14.359Z,9.35
2023-04-07T18:46:17.596Z,9.28
2023-04-07T18:51:20.790Z,9.24
2023-04-07T18:56:27.366Z,9.15
2023-04-07T19:01:30.748Z,9.17
2023-04-07T19:06:33.812Z,9.12
2023-04-07T19:11:38.225Z,9.10
2023-04-07T19:16:41.592Z,9.07
2023-04-07T19:21:44.630Z,9.09
2023-04-07T19:26:49.920Z,9.11
2023-04-07T19:31:54.788Z,9.07
2023-04-07T19:36:58.594Z,8.99
2023-04-07T19:42:03.835Z,8.99
2023-04-07T19:47:07.173Z,8.83
2023-04-07T19:52:10.597Z,8.83
2023-04-07T19:57:16.501Z,8.76
2023-04-07T20:02:19.720Z,8.83
2023-04-07T20:07:23.021Z,8.86
2023-04-07T20:12:27.661Z,8.76
2023-04-07T20:17:32.566Z,8.71
2023-04-07T20:22:36.523Z,8.73
2023-04-07T20:27:41.094Z,8.72
2023-04-07T20:32:46.172Z,8.75
2023-04-07T20:37:49.953Z,8.75
2023-04-07T20:42:54.669Z,8.67
2023-04-07T20:47:57.921Z,8.68
2023-04-07T20:53:01.088Z,8.76
2023-04-07T20:58:05.484Z,8.79
2023-04-07T21:03:09.063Z,8.82
2023-04-07T21:08:14.003Z,8.92
2023-04-07T21:13:22.586Z,8.94
2023-04-07T21:18:26.539Z,8.91
2023-04-07T21:23:31.350Z,8.94
2023-04-07T21:28:35.892Z,8.92
2023-04-07T21:33:39.637Z,8.88
2023-04-07T21:38:42.920Z,8.87
2023-04-07T21:43:50.378Z,8.82
2023-04-07T21:48:53.584Z,8.88
2023-04-07T21:53:56.707Z,8.98
2023-04-07T21:59:01.493Z,8.94
2023-04-07T22:04:04.646Z,8.90
2023-04-07T22:09:08.597Z,8.98
2023-04-07T22:14:13.196Z,9.03
2023-04-07T22:19:16.201Z,8.97
2023-04-07T22:24:19.237Z,9.00
2023-04-07T22:29:24.069Z,8.97
2023-04-07T22:34:27.290Z,8.88
2023-04-07T22:39:30.558Z,8.98
2023-04-07T22:44:35.102Z,8.96
2023-04-07T22:49:38.088Z,8.87
2023-04-07T22:54:41.293Z,8.69
2023-04-07T22:59:51.754Z,8.69
2023-04-07T23:04:55.630Z,8.64
2023-04-07T23:09:58.754Z,8.62
2023-04-07T23:15:03.316Z,8.56
2023-04-07T23:20:07.456Z,8.49
2023-04-07T23:25:11.057Z,8.37
2023-04-07T23:30:16.693Z,8.39
2023-04-07T23:35:20.039Z,8.44
2023-04-07T23:40:23.266Z,8.53
2023-04-07T23:45:27.683Z,8.52
2023-04-07T23:50:31.029Z,8.57
2023-04-07T23:55:34.007Z,8.54
